sensor_id;sensor_type;location;lat;lon;timestamp;P1;durP1;ratioP1;P2;durP2;ratioP2
68923;SDS011;55961;52.156;20.942;2023-07-13T00:00:46;14.18;;;8.45;;
68923;SDS011;55961;52.156;20.942;2023-07-13T00:03:32;12.80;;;8.30;;
68923;SDS011;55961;52.156;20.942;2023-07-13T00:06:00;12.07;;;7.97;;
68923;SDS011;55961;52.156;20.942;2023-07-13T00:10:58;12.32;;;8.38;;
68923;SDS011;55961;52.156;20.942;2023-07-13T00:13:25;12.88;;;8.45;;
68923;SDS011;55961;52.156;20.942;2023-07-13T00:15:51;16.00;;;9.13;;
68923;SDS011;55961;52.156;20.942;2023-07-13T00:18:19;12.25;;;9.00;;
68923;SDS011;55961;52.156;20.942;2023-07-13T00:20:45;14.70;;;9.60;;
68923;SDS011;55961;52.156;20.942;2023-07-13T00:23:12;14.60;;;9.48;;
68923;SDS011;55961;52.156;20.942;2023-07-13T00:25:37;14.10;;;9.27;;
68923;SDS011;55961;52.156;20.942;2023-07-13T00:28:03;14.23;;;9.87;;
68923;SDS011;55961;52.156;20.942;2023-07-13T00:30:29;17.15;;;9.20;;
68923;SDS011;55961;52.156;20.942;2023-07-13T00:32:55;14.13;;;9.20;;
68923;SDS011;55961;52.156;20.942;2023-07-13T00:35:21;16.33;;;9.10;;
68923;SDS011;55961;52.156;20.942;2023-07-13T00:37:47;13.88;;;8.98;;
68923;SDS011;55961;52.156;20.942;2023-07-13T00:40:14;13.48;;;9.18;;
68923;SDS011;55961;52.156;20.942;2023-07-13T00:42:40;13.07;;;8.55;;
68923;SDS011;55961;52.156;20.942;2023-07-13T00:46:07;13.47;;;9.40;;
68923;SDS011;55961;52.156;20.942;2023-07-13T00:47:53;15.73;;;9.40;;
68923;SDS011;55961;52.156;20.942;2023-07-13T00:50:20;14.85;;;9.35;;
68923;SDS011;55961;52.156;20.942;2023-07-13T00:52:49;15.38;;;9.77;;
68923;SDS011;55961;52.156;20.942;2023-07-13T00:55:19;12.60;;;9.10;;
68923;SDS011;55961;52.156;20.942;2023-07-13T00:57:47;17.17;;;9.90;;
68923;SDS011;55961;52.156;20.942;2023-07-13T01:00:13;14.40;;;9.57;;
68923;SDS011;55961;52.156;20.942;2023-07-13T01:02:41;15.60;;;10.23;;
68923;SDS011;55961;52.156;20.942;2023-07-13T01:05:10;13.23;;;10.18;;
68923;SDS011;55961;52.156;20.942;2023-07-13T01:07:41;16.57;;;10.70;;
68923;SDS011;55961;52.156;20.942;2023-07-13T01:10:09;16.08;;;11.43;;
68923;SDS011;55961;52.156;20.942;2023-07-13T01:12:37;15.90;;;11.35;;
68923;SDS011;55961;52.156;20.942;2023-07-13T01:15:03;16.10;;;11.82;;
68923;SDS011;55961;52.156;20.942;2023-07-13T01:17:29;17.15;;;12.80;;
68923;SDS011;55961;52.156;20.942;2023-07-13T01:19:58;18.13;;;12.73;;
68923;SDS011;55961;52.156;20.942;2023-07-13T01:22:25;17.13;;;12.07;;
68923;SDS011;55961;52.156;20.942;2023-07-13T01:24:52;16.38;;;11.93;;
68923;SDS011;55961;52.156;20.942;2023-07-13T01:27:24;16.30;;;12.30;;
68923;SDS011;55961;52.156;20.942;2023-07-13T01:29:51;16.92;;;11.57;;
68923;SDS011;55961;52.156;20.942;2023-07-13T01:32:19;17.37;;;11.63;;
68923;SDS011;55961;52.156;20.942;2023-07-13T01:34:50;16.95;;;12.15;;
68923;SDS011;55961;52.156;20.942;2023-07-13T01:37:19;18.05;;;11.80;;
68923;SDS011;55961;52.156;20.942;2023-07-13T01:39:46;15.77;;;11.50;;
68923;SDS011;55961;52.156;20.942;2023-07-13T01:42:13;17.20;;;11.05;;
68923;SDS011;55961;52.156;20.942;2023-07-13T01:44:57;17.87;;;11.60;;
68923;SDS011;55961;52.156;20.942;2023-07-13T01:47:23;17.13;;;12.05;;
68923;SDS011;55961;52.156;20.942;2023-07-13T01:49:51;17.05;;;11.98;;
68923;SDS011;55961;52.156;20.942;2023-07-13T01:52:17;17.17;;;11.75;;
68923;SDS011;55961;52.156;20.942;2023-07-13T01:54:43;17.83;;;10.77;;
68923;SDS011;55961;52.156;20.942;2023-07-13T01:57:09;15.63;;;11.07;;
68923;SDS011;55961;52.156;20.942;2023-07-13T01:59:35;14.85;;;11.48;;
68923;SDS011;55961;52.156;20.942;2023-07-13T02:02:01;16.63;;;11.20;;
68923;SDS011;55961;52.156;20.942;2023-07-13T02:04:27;15.87;;;11.13;;
68923;SDS011;55961;52.156;20.942;2023-07-13T02:06:53;15.57;;;10.43;;
68923;SDS011;55961;52.156;20.942;2023-07-13T02:09:20;15.05;;;10.60;;
68923;SDS011;55961;52.156;20.942;2023-07-13T02:11:46;13.73;;;10.65;;
68923;SDS011;55961;52.156;20.942;2023-07-13T02:14:13;15.50;;;10.67;;
68923;SDS011;55961;52.156;20.942;2023-07-13T02:16:40;15.48;;;11.00;;
68923;SDS011;55961;52.156;20.942;2023-07-13T02:19:07;15.35;;;11.35;;
68923;SDS011;55961;52.156;20.942;2023-07-13T02:21:33;18.90;;;12.07;;
68923;SDS011;55961;52.156;20.942;2023-07-13T02:24:00;16.27;;;11.80;;
68923;SDS011;55961;52.156;20.942;2023-07-13T02:26:26;16.63;;;12.50;;
68923;SDS011;55961;52.156;20.942;2023-07-13T02:28:53;17.00;;;12.75;;
68923;SDS011;55961;52.156;20.942;2023-07-13T02:31:19;17.65;;;12.93;;
68923;SDS011;55961;52.156;20.942;2023-07-13T02:33:45;19.60;;;13.77;;
68923;SDS011;55961;52.156;20.942;2023-07-13T02:36:12;20.60;;;13.20;;
68923;SDS011;55961;52.156;20.942;2023-07-13T02:38:41;18.13;;;13.13;;
68923;SDS011;55961;52.156;20.942;2023-07-13T02:41:08;17.77;;;12.88;;
68923;SDS011;55961;52.156;20.942;2023-07-13T02:43:35;17.08;;;13.60;;
68923;SDS011;55961;52.156;20.942;2023-07-13T02:46:02;18.48;;;13.13;;
68923;SDS011;55961;52.156;20.942;2023-07-13T02:48:34;16.70;;;12.43;;
68923;SDS011;55961;52.156;20.942;2023-07-13T02:51:01;17.85;;;12.75;;
68923;SDS011;55961;52.156;20.942;2023-07-13T02:53:27;14.95;;;10.35;;
68923;SDS011;55961;52.156;20.942;2023-07-13T02:55:53;15.48;;;11.63;;
68923;SDS011;55961;52.156;20.942;2023-07-13T02:58:19;15.50;;;11.33;;
68923;SDS011;55961;52.156;20.942;2023-07-13T03:00:45;15.48;;;11.55;;
68923;SDS011;55961;52.156;20.942;2023-07-13T03:03:12;26.42;;;19.17;;
68923;SDS011;55961;52.156;20.942;2023-07-13T03:05:40;17.35;;;12.57;;
68923;SDS011;55961;52.156;20.942;2023-07-13T03:08:08;17.42;;;12.18;;
68923;SDS011;55961;52.156;20.942;2023-07-13T03:10:34;15.67;;;12.30;;
68923;SDS011;55961;52.156;20.942;2023-07-13T03:13:00;16.77;;;12.20;;
68923;SDS011;55961;52.156;20.942;2023-07-13T03:15:27;17.85;;;12.10;;
68923;SDS011;55961;52.156;20.942;2023-07-13T03:17:52;17.75;;;13.25;;
68923;SDS011;55961;52.156;20.942;2023-07-13T03:20:19;17.43;;;12.40;;
68923;SDS011;55961;52.156;20.942;2023-07-13T03:22:45;18.63;;;12.48;;
68923;SDS011;55961;52.156;20.942;2023-07-13T03:25:11;17.63;;;12.52;;
68923;SDS011;55961;52.156;20.942;2023-07-13T03:27:37;21.75;;;12.45;;
68923;SDS011;55961;52.156;20.942;2023-07-13T03:30:04;17.17;;;10.63;;
68923;SDS011;55961;52.156;20.942;2023-07-13T03:32:31;17.42;;;9.95;;
68923;SDS011;55961;52.156;20.942;2023-07-13T03:34:57;13.18;;;9.57;;
68923;SDS011;55961;52.156;20.942;2023-07-13T03:37:23;15.13;;;9.70;;
68923;SDS011;55961;52.156;20.942;2023-07-13T03:39:49;14.98;;;9.07;;
68923;SDS011;55961;52.156;20.942;2023-07-13T03:42:15;16.37;;;10.13;;
68923;SDS011;55961;52.156;20.942;2023-07-13T03:44:42;14.30;;;10.38;;
68923;SDS011;55961;52.156;20.942;2023-07-13T03:47:11;16.98;;;10.23;;
68923;SDS011;55961;52.156;20.942;2023-07-13T03:49:37;15.18;;;10.40;;
68923;SDS011;55961;52.156;20.942;2023-07-13T03:52:03;17.27;;;11.60;;
68923;SDS011;55961;52.156;20.942;2023-07-13T03:54:29;16.52;;;11.32;;
68923;SDS011;55961;52.156;20.942;2023-07-13T03:56:56;13.63;;;10.82;;
68923;SDS011;55961;52.156;20.942;2023-07-13T03:59:22;15.70;;;10.55;;
68923;SDS011;55961;52.156;20.942;2023-07-13T04:01:47;16.13;;;11.00;;
68923;SDS011;55961;52.156;20.942;2023-07-13T04:04:14;15.10;;;12.18;;
68923;SDS011;55961;52.156;20.942;2023-07-13T04:06:40;17.05;;;11.73;;
68923;SDS011;55961;52.156;20.942;2023-07-13T04:09:06;16.63;;;12.43;;
68923;SDS011;55961;52.156;20.942;2023-07-13T04:11:34;15.57;;;11.88;;
68923;SDS011;55961;52.156;20.942;2023-07-13T04:14:01;16.57;;;12.03;;
68923;SDS011;55961;52.156;20.942;2023-07-13T04:16:28;15.02;;;11.60;;
68923;SDS011;55961;52.156;20.942;2023-07-13T04:18:55;18.83;;;13.40;;
68923;SDS011;55961;52.156;20.942;2023-07-13T04:21:25;17.95;;;13.02;;
68923;SDS011;55961;52.156;20.942;2023-07-13T04:23:52;21.52;;;13.40;;
68923;SDS011;55961;52.156;20.942;2023-07-13T04:26:18;19.47;;;13.37;;
68923;SDS011;55961;52.156;20.942;2023-07-13T04:28:50;17.80;;;12.52;;
68923;SDS011;55961;52.156;20.942;2023-07-13T04:31:35;22.17;;;15.38;;
68923;SDS011;55961;52.156;20.942;2023-07-13T04:34:01;19.48;;;13.50;;
68923;SDS011;55961;52.156;20.942;2023-07-13T04:36:28;19.13;;;12.57;;
68923;SDS011;55961;52.156;20.942;2023-07-13T04:38:54;20.47;;;13.50;;
68923;SDS011;55961;52.156;20.942;2023-07-13T04:41:20;21.15;;;14.35;;
68923;SDS011;55961;52.156;20.942;2023-07-13T04:43:47;21.38;;;14.73;;
68923;SDS011;55961;52.156;20.942;2023-07-13T04:46:14;18.67;;;14.30;;
68923;SDS011;55961;52.156;20.942;2023-07-13T04:48:42;20.03;;;13.90;;
68923;SDS011;55961;52.156;20.942;2023-07-13T04:51:09;19.23;;;14.23;;
68923;SDS011;55961;52.156;20.942;2023-07-13T04:53:35;20.00;;;13.65;;
68923;SDS011;55961;52.156;20.942;2023-07-13T04:56:08;20.88;;;14.60;;
68923;SDS011;55961;52.156;20.942;2023-07-13T04:58:36;18.27;;;13.57;;
68923;SDS011;55961;52.156;20.942;2023-07-13T05:01:03;20.20;;;13.87;;
68923;SDS011;55961;52.156;20.942;2023-07-13T05:03:30;16.05;;;12.02;;
68923;SDS011;55961;52.156;20.942;2023-07-13T05:06:07;17.05;;;12.15;;
68923;SDS011;55961;52.156;20.942;2023-07-13T05:08:37;21.38;;;12.40;;
68923;SDS011;55961;52.156;20.942;2023-07-13T05:11:03;14.13;;;11.27;;
68923;SDS011;55961;52.156;20.942;2023-07-13T05:13:30;17.30;;;12.43;;
68923;SDS011;55961;52.156;20.942;2023-07-13T05:15:57;19.20;;;12.00;;
68923;SDS011;55961;52.156;20.942;2023-07-13T05:18:24;17.20;;;11.97;;
68923;SDS011;55961;52.156;20.942;2023-07-13T05:21:01;16.95;;;12.35;;
68923;SDS011;55961;52.156;20.942;2023-07-13T05:23:29;20.35;;;12.98;;
68923;SDS011;55961;52.156;20.942;2023-07-13T05:25:56;18.08;;;12.80;;
68923;SDS011;55961;52.156;20.942;2023-07-13T05:28:23;18.20;;;12.57;;
68923;SDS011;55961;52.156;20.942;2023-07-13T05:30:49;17.93;;;12.10;;
68923;SDS011;55961;52.156;20.942;2023-07-13T05:33:16;16.48;;;12.80;;
68923;SDS011;55961;52.156;20.942;2023-07-13T05:35:42;17.55;;;13.00;;
68923;SDS011;55961;52.156;20.942;2023-07-13T05:38:08;20.08;;;12.73;;
68923;SDS011;55961;52.156;20.942;2023-07-13T05:40:34;17.77;;;12.60;;
68923;SDS011;55961;52.156;20.942;2023-07-13T05:43:00;18.40;;;12.90;;
68923;SDS011;55961;52.156;20.942;2023-07-13T05:45:26;19.52;;;13.18;;
68923;SDS011;55961;52.156;20.942;2023-07-13T05:47:52;19.40;;;14.40;;
68923;SDS011;55961;52.156;20.942;2023-07-13T05:50:18;21.23;;;14.63;;
68923;SDS011;55961;52.156;20.942;2023-07-13T05:52:44;19.60;;;14.07;;
68923;SDS011;55961;52.156;20.942;2023-07-13T05:55:10;19.27;;;14.60;;
68923;SDS011;55961;52.156;20.942;2023-07-13T05:57:36;19.40;;;14.57;;
68923;SDS011;55961;52.156;20.942;2023-07-13T06:00:02;21.75;;;15.23;;
68923;SDS011;55961;52.156;20.942;2023-07-13T06:02:28;19.67;;;14.77;;
68923;SDS011;55961;52.156;20.942;2023-07-13T06:04:54;20.63;;;14.90;;
68923;SDS011;55961;52.156;20.942;2023-07-13T06:07:20;23.17;;;14.40;;
68923;SDS011;55961;52.156;20.942;2023-07-13T06:09:46;20.17;;;14.88;;
68923;SDS011;55961;52.156;20.942;2023-07-13T06:12:12;20.13;;;15.55;;
68923;SDS011;55961;52.156;20.942;2023-07-13T06:14:38;22.53;;;15.50;;
68923;SDS011;55961;52.156;20.942;2023-07-13T06:17:04;20.92;;;14.27;;
68923;SDS011;55961;52.156;20.942;2023-07-13T06:19:31;16.60;;;13.32;;
68923;SDS011;55961;52.156;20.942;2023-07-13T06:21:57;19.15;;;14.60;;
68923;SDS011;55961;52.156;20.942;2023-07-13T06:24:24;20.45;;;14.35;;
68923;SDS011;55961;52.156;20.942;2023-07-13T06:26:50;19.40;;;14.57;;
68923;SDS011;55961;52.156;20.942;2023-07-13T06:29:16;21.13;;;15.55;;
68923;SDS011;55961;52.156;20.942;2023-07-13T06:31:42;18.70;;;14.30;;
68923;SDS011;55961;52.156;20.942;2023-07-13T06:34:08;17.63;;;13.15;;
68923;SDS011;55961;52.156;20.942;2023-07-13T06:36:34;17.73;;;13.07;;
68923;SDS011;55961;52.156;20.942;2023-07-13T06:39:01;16.55;;;12.38;;
68923;SDS011;55961;52.156;20.942;2023-07-13T06:41:28;18.58;;;12.88;;
68923;SDS011;55961;52.156;20.942;2023-07-13T06:43:55;14.43;;;11.50;;
68923;SDS011;55961;52.156;20.942;2023-07-13T06:46:22;15.23;;;11.20;;
68923;SDS011;55961;52.156;20.942;2023-07-13T06:48:48;15.10;;;11.67;;
68923;SDS011;55961;52.156;20.942;2023-07-13T06:51:14;13.35;;;9.98;;
68923;SDS011;55961;52.156;20.942;2023-07-13T06:53:40;14.45;;;10.32;;
68923;SDS011;55961;52.156;20.942;2023-07-13T06:56:08;13.35;;;9.30;;
68923;SDS011;55961;52.156;20.942;2023-07-13T06:58:34;12.20;;;8.57;;
68923;SDS011;55961;52.156;20.942;2023-07-13T07:01:00;15.80;;;10.87;;
68923;SDS011;55961;52.156;20.942;2023-07-13T07:03:26;13.55;;;10.20;;
68923;SDS011;55961;52.156;20.942;2023-07-13T07:05:52;14.70;;;9.45;;
68923;SDS011;55961;52.156;20.942;2023-07-13T07:08:18;11.93;;;9.02;;
68923;SDS011;55961;52.156;20.942;2023-07-13T07:10:44;14.47;;;10.17;;
68923;SDS011;55961;52.156;20.942;2023-07-13T07:13:10;13.00;;;9.45;;
68923;SDS011;55961;52.156;20.942;2023-07-13T07:15:36;13.73;;;9.20;;
68923;SDS011;55961;52.156;20.942;2023-07-13T07:18:02;11.05;;;7.30;;
68923;SDS011;55961;52.156;20.942;2023-07-13T07:20:28;8.77;;;5.30;;
68923;SDS011;55961;52.156;20.942;2023-07-13T07:22:55;8.73;;;6.13;;
68923;SDS011;55961;52.156;20.942;2023-07-13T07:25:21;7.60;;;5.43;;
68923;SDS011;55961;52.156;20.942;2023-07-13T07:27:47;8.57;;;6.63;;
68923;SDS011;55961;52.156;20.942;2023-07-13T07:30:13;9.20;;;5.23;;
68923;SDS011;55961;52.156;20.942;2023-07-13T07:32:40;9.68;;;4.50;;
68923;SDS011;55961;52.156;20.942;2023-07-13T07:35:07;6.03;;;4.05;;
68923;SDS011;55961;52.156;20.942;2023-07-13T07:37:33;6.93;;;4.68;;
68923;SDS011;55961;52.156;20.942;2023-07-13T07:39:59;8.80;;;4.95;;
68923;SDS011;55961;52.156;20.942;2023-07-13T07:42:25;8.93;;;5.50;;
68923;SDS011;55961;52.156;20.942;2023-07-13T07:44:51;7.95;;;4.82;;
68923;SDS011;55961;52.156;20.942;2023-07-13T07:47:16;8.53;;;4.87;;
68923;SDS011;55961;52.156;20.942;2023-07-13T07:49:43;7.83;;;4.13;;
68923;SDS011;55961;52.156;20.942;2023-07-13T07:52:08;6.80;;;4.07;;
68923;SDS011;55961;52.156;20.942;2023-07-13T07:54:35;8.38;;;3.78;;
68923;SDS011;55961;52.156;20.942;2023-07-13T07:57:01;5.80;;;3.78;;
68923;SDS011;55961;52.156;20.942;2023-07-13T07:59:27;6.00;;;3.93;;
68923;SDS011;55961;52.156;20.942;2023-07-13T08:01:53;7.30;;;4.50;;
68923;SDS011;55961;52.156;20.942;2023-07-13T08:04:19;7.93;;;5.10;;
68923;SDS011;55961;52.156;20.942;2023-07-13T08:06:45;8.50;;;4.90;;
68923;SDS011;55961;52.156;20.942;2023-07-13T08:09:11;6.90;;;4.50;;
68923;SDS011;55961;52.156;20.942;2023-07-13T08:11:36;7.55;;;5.10;;
68923;SDS011;55961;52.156;20.942;2023-07-13T08:14:03;8.02;;;5.28;;
68923;SDS011;55961;52.156;20.942;2023-07-13T08:16:28;6.83;;;5.43;;
68923;SDS011;55961;52.156;20.942;2023-07-13T08:18:54;8.60;;;4.90;;
68923;SDS011;55961;52.156;20.942;2023-07-13T08:21:20;8.40;;;4.97;;
68923;SDS011;55961;52.156;20.942;2023-07-13T08:23:47;7.00;;;5.17;;
68923;SDS011;55961;52.156;20.942;2023-07-13T08:26:13;8.77;;;5.75;;
68923;SDS011;55961;52.156;20.942;2023-07-13T08:28:40;7.70;;;5.78;;
68923;SDS011;55961;52.156;20.942;2023-07-13T08:31:06;8.02;;;6.72;;
68923;SDS011;55961;52.156;20.942;2023-07-13T08:33:34;9.23;;;7.13;;
68923;SDS011;55961;52.156;20.942;2023-07-13T08:36:01;9.40;;;7.15;;
68923;SDS011;55961;52.156;20.942;2023-07-13T08:38:27;12.77;;;7.15;;
68923;SDS011;55961;52.156;20.942;2023-07-13T08:40:53;11.25;;;7.95;;
68923;SDS011;55961;52.156;20.942;2023-07-13T08:43:39;10.40;;;8.18;;
68923;SDS011;55961;52.156;20.942;2023-07-13T08:49:05;9.85;;;7.65;;
68923;SDS011;55961;52.156;20.942;2023-07-13T08:51:38;10.70;;;8.18;;
68923;SDS011;55961;52.156;20.942;2023-07-13T08:56:45;11.32;;;8.35;;
68923;SDS011;55961;52.156;20.942;2023-07-13T08:59:16;11.17;;;8.43;;
68923;SDS011;55961;52.156;20.942;2023-07-13T09:04:23;11.95;;;7.90;;
68923;SDS011;55961;52.156;20.942;2023-07-13T09:12:12;10.97;;;8.50;;
68923;SDS011;55961;52.156;20.942;2023-07-13T09:15:04;9.95;;;7.78;;
68923;SDS011;55961;52.156;20.942;2023-07-13T09:17:46;12.43;;;7.72;;
68923;SDS011;55961;52.156;20.942;2023-07-13T09:23:04;10.23;;;7.60;;
68923;SDS011;55961;52.156;20.942;2023-07-13T09:25:37;10.90;;;7.97;;
68923;SDS011;55961;52.156;20.942;2023-07-13T09:33:51;9.77;;;8.15;;
68923;SDS011;55961;52.156;20.942;2023-07-13T09:36:24;11.35;;;8.30;;
68923;SDS011;55961;52.156;20.942;2023-07-13T09:39:04;11.03;;;7.80;;
68923;SDS011;55961;52.156;20.942;2023-07-13T09:46:56;11.32;;;8.00;;
68923;SDS011;55961;52.156;20.942;2023-07-13T09:49:23;11.65;;;7.60;;
68923;SDS011;55961;52.156;20.942;2023-07-13T09:51:58;9.90;;;7.87;;
68923;SDS011;55961;52.156;20.942;2023-07-13T09:54:26;11.40;;;7.75;;
68923;SDS011;55961;52.156;20.942;2023-07-13T09:56:55;12.52;;;7.43;;
68923;SDS011;55961;52.156;20.942;2023-07-13T09:59:24;10.13;;;7.88;;
68923;SDS011;55961;52.156;20.942;2023-07-13T10:01:54;9.82;;;7.65;;
68923;SDS011;55961;52.156;20.942;2023-07-13T10:04:26;9.97;;;8.40;;
68923;SDS011;55961;52.156;20.942;2023-07-13T10:07:06;11.80;;;6.03;;
68923;SDS011;55961;52.156;20.942;2023-07-13T10:09:33;9.00;;;4.78;;
68923;SDS011;55961;52.156;20.942;2023-07-13T10:12:00;8.63;;;4.72;;
68923;SDS011;55961;52.156;20.942;2023-07-13T10:14:26;9.05;;;5.03;;
68923;SDS011;55961;52.156;20.942;2023-07-13T10:17:00;7.97;;;4.43;;
68923;SDS011;55961;52.156;20.942;2023-07-13T10:19:30;9.30;;;4.78;;
68923;SDS011;55961;52.156;20.942;2023-07-13T10:22:00;9.00;;;4.20;;
68923;SDS011;55961;52.156;20.942;2023-07-13T10:24:30;7.47;;;4.43;;
68923;SDS011;55961;52.156;20.942;2023-07-13T10:29:32;7.27;;;4.90;;
68923;SDS011;55961;52.156;20.942;2023-07-13T10:32:04;8.48;;;4.45;;
68923;SDS011;55961;52.156;20.942;2023-07-13T10:34:36;5.95;;;4.32;;
68923;SDS011;55961;52.156;20.942;2023-07-13T10:37:03;7.30;;;4.40;;
68923;SDS011;55961;52.156;20.942;2023-07-13T10:39:30;7.15;;;4.65;;
68923;SDS011;55961;52.156;20.942;2023-07-13T10:42:00;7.50;;;5.07;;
68923;SDS011;55961;52.156;20.942;2023-07-13T10:44:31;8.68;;;4.40;;
68923;SDS011;55961;52.156;20.942;2023-07-13T10:46:59;9.43;;;4.28;;
68923;SDS011;55961;52.156;20.942;2023-07-13T10:49:31;8.88;;;4.78;;
68923;SDS011;55961;52.156;20.942;2023-07-13T10:52:00;10.98;;;5.20;;
68923;SDS011;55961;52.156;20.942;2023-07-13T10:54:30;9.43;;;5.77;;
68923;SDS011;55961;52.156;20.942;2023-07-13T10:59:48;22.77;;;6.88;;
68923;SDS011;55961;52.156;20.942;2023-07-13T11:02:28;13.18;;;6.40;;
68923;SDS011;55961;52.156;20.942;2023-07-13T11:04:55;15.77;;;6.13;;
68923;SDS011;55961;52.156;20.942;2023-07-13T11:07:29;13.17;;;5.90;;
68923;SDS011;55961;52.156;20.942;2023-07-13T11:09:58;17.45;;;7.00;;
68923;SDS011;55961;52.156;20.942;2023-07-13T11:12:27;15.73;;;7.15;;
68923;SDS011;55961;52.156;20.942;2023-07-13T11:15:13;14.57;;;7.10;;
68923;SDS011;55961;52.156;20.942;2023-07-13T11:17:49;18.42;;;6.72;;
68923;SDS011;55961;52.156;20.942;2023-07-13T11:20:30;13.60;;;6.20;;
68923;SDS011;55961;52.156;20.942;2023-07-13T11:25:44;10.20;;;5.72;;
68923;SDS011;55961;52.156;20.942;2023-07-13T11:36:17;13.38;;;9.07;;
68923;SDS011;55961;52.156;20.942;2023-07-13T11:41:55;15.70;;;8.50;;
68923;SDS011;55961;52.156;20.942;2023-07-13T11:44:25;16.40;;;8.45;;
68923;SDS011;55961;52.156;20.942;2023-07-13T11:46:56;15.10;;;9.03;;
68923;SDS011;55961;52.156;20.942;2023-07-13T11:49:29;12.95;;;8.45;;
68923;SDS011;55961;52.156;20.942;2023-07-13T11:51:56;12.13;;;8.30;;
68923;SDS011;55961;52.156;20.942;2023-07-13T11:54:30;14.93;;;8.20;;
68923;SDS011;55961;52.156;20.942;2023-07-13T11:57:03;11.60;;;7.30;;
68923;SDS011;55961;52.156;20.942;2023-07-13T11:59:43;10.87;;;6.90;;
68923;SDS011;55961;52.156;20.942;2023-07-13T12:02:17;15.80;;;6.13;;
68923;SDS011;55961;52.156;20.942;2023-07-13T12:04:51;8.30;;;5.20;;
68923;SDS011;55961;52.156;20.942;2023-07-13T12:07:18;8.32;;;4.75;;
68923;SDS011;55961;52.156;20.942;2023-07-13T12:09:45;8.83;;;5.03;;
68923;SDS011;55961;52.156;20.942;2023-07-13T12:12:12;8.48;;;4.43;;
68923;SDS011;55961;52.156;20.942;2023-07-13T12:14:39;7.85;;;4.82;;
68923;SDS011;55961;52.156;20.942;2023-07-13T12:17:09;7.25;;;4.03;;
68923;SDS011;55961;52.156;20.942;2023-07-13T12:19:51;7.43;;;4.55;;
68923;SDS011;55961;52.156;20.942;2023-07-13T12:22:18;7.27;;;4.07;;
68923;SDS011;55961;52.156;20.942;2023-07-13T12:24:46;9.10;;;4.20;;
68923;SDS011;55961;52.156;20.942;2023-07-13T12:27:30;8.82;;;4.10;;
68923;SDS011;55961;52.156;20.942;2023-07-13T12:30:03;8.85;;;4.40;;
68923;SDS011;55961;52.156;20.942;2023-07-13T12:32:31;13.38;;;4.78;;
68923;SDS011;55961;52.156;20.942;2023-07-13T12:35:04;8.10;;;4.40;;
68923;SDS011;55961;52.156;20.942;2023-07-13T12:37:43;7.40;;;4.40;;
68923;SDS011;55961;52.156;20.942;2023-07-13T12:40:18;9.18;;;4.47;;
68923;SDS011;55961;52.156;20.942;2023-07-13T12:42:47;8.43;;;4.00;;
68923;SDS011;55961;52.156;20.942;2023-07-13T12:45:19;8.45;;;4.45;;
68923;SDS011;55961;52.156;20.942;2023-07-13T12:47:47;7.60;;;4.47;;
68923;SDS011;55961;52.156;20.942;2023-07-13T12:50:16;7.32;;;4.10;;
68923;SDS011;55961;52.156;20.942;2023-07-13T12:52:44;7.80;;;4.45;;
68923;SDS011;55961;52.156;20.942;2023-07-13T12:55:20;7.47;;;4.50;;
68923;SDS011;55961;52.156;20.942;2023-07-13T12:57:51;8.48;;;4.50;;
68923;SDS011;55961;52.156;20.942;2023-07-13T13:02:58;7.68;;;5.22;;
68923;SDS011;55961;52.156;20.942;2023-07-13T13:05:32;8.60;;;5.00;;
68923;SDS011;55961;52.156;20.942;2023-07-13T13:07:59;9.73;;;5.65;;
68923;SDS011;55961;52.156;20.942;2023-07-13T13:10:25;8.23;;;4.82;;
68923;SDS011;55961;52.156;20.942;2023-07-13T13:12:52;9.07;;;5.93;;
68923;SDS011;55961;52.156;20.942;2023-07-13T13:15:18;8.80;;;5.28;;
68923;SDS011;55961;52.156;20.942;2023-07-13T13:17:44;13.30;;;5.43;;
68923;SDS011;55961;52.156;20.942;2023-07-13T13:22:44;7.60;;;4.97;;
68923;SDS011;55961;52.156;20.942;2023-07-13T13:25:10;8.32;;;4.65;;
68923;SDS011;55961;52.156;20.942;2023-07-13T13:27:36;8.25;;;4.70;;
68923;SDS011;55961;52.156;20.942;2023-07-13T13:30:09;10.55;;;5.28;;
68923;SDS011;55961;52.156;20.942;2023-07-13T13:32:43;8.23;;;4.75;;
68923;SDS011;55961;52.156;20.942;2023-07-13T13:35:14;11.53;;;5.30;;
68923;SDS011;55961;52.156;20.942;2023-07-13T13:37:41;8.88;;;5.25;;
68923;SDS011;55961;52.156;20.942;2023-07-13T13:40:13;9.55;;;5.32;;
68923;SDS011;55961;52.156;20.942;2023-07-13T13:42:41;9.65;;;5.30;;
68923;SDS011;55961;52.156;20.942;2023-07-13T13:45:08;8.85;;;5.22;;
68923;SDS011;55961;52.156;20.942;2023-07-13T13:47:35;7.93;;;5.53;;
68923;SDS011;55961;52.156;20.942;2023-07-13T13:50:10;7.85;;;6.03;;
68923;SDS011;55961;52.156;20.942;2023-07-13T13:52:41;8.15;;;6.03;;
68923;SDS011;55961;52.156;20.942;2023-07-13T13:55:11;8.45;;;6.00;;
68923;SDS011;55961;52.156;20.942;2023-07-13T13:57:42;11.98;;;6.05;;
68923;SDS011;55961;52.156;20.942;2023-07-13T14:00:09;10.30;;;6.43;;
68923;SDS011;55961;52.156;20.942;2023-07-13T14:02:40;12.45;;;6.68;;
68923;SDS011;55961;52.156;20.942;2023-07-13T14:05:13;8.63;;;6.50;;
68923;SDS011;55961;52.156;20.942;2023-07-13T14:07:41;10.93;;;6.75;;
68923;SDS011;55961;52.156;20.942;2023-07-13T14:10:16;10.05;;;6.75;;
68923;SDS011;55961;52.156;20.942;2023-07-13T14:12:44;12.00;;;6.97;;
68923;SDS011;55961;52.156;20.942;2023-07-13T14:15:23;10.88;;;7.32;;
68923;SDS011;55961;52.156;20.942;2023-07-13T14:17:51;11.93;;;7.72;;
68923;SDS011;55961;52.156;20.942;2023-07-13T14:20:18;13.50;;;7.80;;
68923;SDS011;55961;52.156;20.942;2023-07-13T14:22:45;13.52;;;7.47;;
68923;SDS011;55961;52.156;20.942;2023-07-13T14:25:15;12.50;;;7.40;;
68923;SDS011;55961;52.156;20.942;2023-07-13T14:27:42;13.90;;;8.15;;
68923;SDS011;55961;52.156;20.942;2023-07-13T14:30:13;12.45;;;7.68;;
68923;SDS011;55961;52.156;20.942;2023-07-13T14:32:44;11.85;;;7.68;;
68923;SDS011;55961;52.156;20.942;2023-07-13T14:35:14;12.43;;;7.82;;
68923;SDS011;55961;52.156;20.942;2023-07-13T14:37:41;12.77;;;8.33;;
68923;SDS011;55961;52.156;20.942;2023-07-13T14:40:16;12.13;;;6.78;;
68923;SDS011;55961;52.156;20.942;2023-07-13T14:42:46;10.88;;;7.28;;
68923;SDS011;55961;52.156;20.942;2023-07-13T14:45:16;11.15;;;7.60;;
68923;SDS011;55961;52.156;20.942;2023-07-13T14:47:43;14.52;;;7.80;;
68923;SDS011;55961;52.156;20.942;2023-07-13T14:52:41;14.85;;;7.68;;
68923;SDS011;55961;52.156;20.942;2023-07-13T14:55:11;14.32;;;8.95;;
68923;SDS011;55961;52.156;20.942;2023-07-13T14:57:38;13.20;;;9.00;;
68923;SDS011;55961;52.156;20.942;2023-07-13T15:00:05;12.25;;;8.50;;
68923;SDS011;55961;52.156;20.942;2023-07-13T15:02:38;11.70;;;8.03;;
68923;SDS011;55961;52.156;20.942;2023-07-13T15:05:14;12.48;;;8.25;;
68923;SDS011;55961;52.156;20.942;2023-07-13T15:07:43;12.13;;;8.13;;
68923;SDS011;55961;52.156;20.942;2023-07-13T15:10:20;9.43;;;6.75;;
68923;SDS011;55961;52.156;20.942;2023-07-13T15:12:46;11.23;;;6.97;;
68923;SDS011;55961;52.156;20.942;2023-07-13T15:15:13;9.63;;;7.60;;
68923;SDS011;55961;52.156;20.942;2023-07-13T15:17:43;9.82;;;7.10;;
68923;SDS011;55961;52.156;20.942;2023-07-13T15:22:57;12.00;;;7.60;;
68923;SDS011;55961;52.156;20.942;2023-07-13T15:25:25;9.48;;;7.38;;
68923;SDS011;55961;52.156;20.942;2023-07-13T15:27:53;12.97;;;8.13;;